createdAt,value
2019-03-12T00:00:18.574Z,96.40
2019-03-12T00:02:47.020Z,96.50
2019-03-12T00:05:15.450Z,96.70
2019-03-12T00:07:43.902Z,96.80
2019-03-12T00:10:12.319Z,97.10
2019-03-12T00:12:40.754Z,96.90
2019-03-12T00:15:09.289Z,97.10
2019-03-12T00:17:37.705Z,97.10
2019-03-12T00:20:07.453Z,97.20
2019-03-12T00:22:35.903Z,97.20
2019-03-12T00:25:05.148Z,97.20
2019-03-12T00:27:33.562Z,97.20
2019-03-12T00:30:02.735Z,97.30
2019-03-12T00:32:31.165Z,97.20
2019-03-12T00:34:59.661Z,97.20
2019-03-12T00:37:28.153Z,97.20
2019-03-12T00:39:56.577Z,96.90
2019-03-12T00:42:24.986Z,96.80
2019-03-12T00:44:53.443Z,97.10
2019-03-12T00:47:21.972Z,96.90
2019-03-12T00:49:50.376Z,97.00
2019-03-12T00:52:18.861Z,97.00
2019-03-12T00:54:47.294Z,97.00
2019-03-12T00:57:15.855Z,97.10
2019-03-12T00:59:44.279Z,97.10
2019-03-12T01:02:12.724Z,97.20
2019-03-12T01:04:41.132Z,97.20
2019-03-12T01:07:09.714Z,97.20
2019-03-12T01:09:38.129Z,97.20
2019-03-12T01:12:06.823Z,97.40
2019-03-12T01:14:35.295Z,97.90
2019-03-12T01:17:03.730Z,97.70
2019-03-12T01:19:32.172Z,97.90
2019-03-12T01:22:00.593Z,98.40
2019-03-12T01:24:29.039Z,98.00
2019-03-12T01:26:57.518Z,98.40
2019-03-12T01:29:26.005Z,98.40
2019-03-12T01:31:54.432Z,98.80
2019-03-12T01:34:22.867Z,98.90
2019-03-12T01:36:51.270Z,98.90
2019-03-12T01:39:19.708Z,98.90
2019-03-12T01:41:48.200Z,99.00
2019-03-12T01:44:16.627Z,99.00
2019-03-12T01:46:45.060Z,99.00
2019-03-12T01:49:13.485Z,98.90
2019-03-12T01:51:43.118Z,98.90
2019-03-12T01:54:11.540Z,98.80
2019-03-12T01:56:39.941Z,98.80
2019-03-12T01:59:08.441Z,98.80
2019-03-12T02:01:36.855Z,99.00
2019-03-12T02:04:05.266Z,98.80
2019-03-12T02:06:33.690Z,99.00
2019-03-12T02:09:03.381Z,99.20
2019-03-12T02:11:31.895Z,99.00
2019-03-12T02:14:00.413Z,99.30
2019-03-12T02:16:28.877Z,99.80
2019-03-12T02:18:58.690Z,99.90
2019-03-12T02:21:27.143Z,99.90
2019-03-12T02:23:55.803Z,99.90
2019-03-12T02:26:24.218Z,99.90
2019-03-12T02:28:54.186Z,99.90
2019-03-12T02:31:22.624Z,99.90
2019-03-12T02:33:51.138Z,99.90
2019-03-12T02:36:19.615Z,99.90
2019-03-12T02:38:48.194Z,99.90
2019-03-12T02:41:16.630Z,99.90
2019-03-12T02:43:45.060Z,99.90
2019-03-12T02:46:13.534Z,99.90
2019-03-12T02:48:41.951Z,99.90
2019-03-12T02:51:10.375Z,99.90
2019-03-12T02:53:38.878Z,99.90
2019-03-12T02:56:07.308Z,99.90
2019-03-12T02:58:35.752Z,99.90
2019-03-12T03:01:04.783Z,99.90
2019-03-12T03:03:33.225Z,99.90
2019-03-12T03:06:03.430Z,99.90
2019-03-12T03:08:34.095Z,99.90
2019-03-12T03:11:02.537Z,99.90
2019-03-12T03:13:31.223Z,99.90
2019-03-12T03:15:59.708Z,99.90
2019-03-12T03:18:28.121Z,99.90
2019-03-12T03:20:56.587Z,99.90
2019-03-12T03:23:25.042Z,99.90
2019-03-12T03:25:55.856Z,99.90
2019-03-12T03:28:26.823Z,99.90
2019-03-12T03:30:57.326Z,99.90
2019-03-12T03:33:27.591Z,99.90
2019-03-12T03:35:57.932Z,99.90
2019-03-12T03:38:26.508Z,99.90
2019-03-12T03:40:56.742Z,99.90
2019-03-12T03:43:25.159Z,99.90
2019-03-12T03:45:54.314Z,99.90
2019-03-12T03:48:22.825Z,99.90
2019-03-12T03:50:51.232Z,99.90
2019-03-12T03:53:19.739Z,99.90
2019-03-12T03:55:48.411Z,99.90
2019-03-12T03:58:16.836Z,99.90
2019-03-12T04:00:45.887Z,99.90
2019-03-12T04:03:14.464Z,99.90
2019-03-12T04:05:43.058Z,99.90
2019-03-12T04:08:11.511Z,99.90
2019-03-12T04:10:40.084Z,99.90
2019-03-12T04:13:08.647Z,99.90
2019-03-12T04:15:38.341Z,99.90
2019-03-12T04:18:06.824Z,99.90
2019-03-12T04:20:35.283Z,99.90
2019-03-12T04:23:03.831Z,99.90
2019-03-12T04:25:33.725Z,99.90
2019-03-12T04:28:03.603Z,99.90
2019-03-12T04:30:34.817Z,99.90
2019-03-12T04:33:03.259Z,99.90
2019-03-12T04:35:35.245Z,99.80
2019-03-12T04:38:03.775Z,99.70
2019-03-12T04:40:32.209Z,99.60
2019-03-12T04:43:00.641Z,99.60
2019-03-12T04:45:29.156Z,99.50
2019-03-12T04:47:57.568Z,99.60
2019-03-12T04:50:26.111Z,99.50
2019-03-12T04:52:54.534Z,99.30
2019-03-12T04:55:22.955Z,99.30
2019-03-12T04:57:51.654Z,99.20
2019-03-12T05:00:23.096Z,99.30
2019-03-12T05:02:52.956Z,99.20
2019-03-12T05:05:21.576Z,99.10
2019-03-12T05:07:49.983Z,99.10
2019-03-12T05:10:18.480Z,99.10
2019-03-12T05:12:47.973Z,99.30
2019-03-12T05:15:20.093Z,99.10
2019-03-12T05:17:48.763Z,99.00
2019-03-12T05:20:17.365Z,98.80
2019-03-12T05:22:45.868Z,98.60
2019-03-12T05:25:15.330Z,98.60
2019-03-12T05:27:44.069Z,98.40
2019-03-12T05:30:20.050Z,98.50
2019-03-12T05:32:48.501Z,98.20
2019-03-12T05:35:16.898Z,98.30
2019-03-12T05:37:45.483Z,98.20
2019-03-12T05:40:15.115Z,98.20
2019-03-12T05:42:43.828Z,98.30
2019-03-12T05:45:18.925Z,98.40
2019-03-12T05:47:47.600Z,98.20
2019-03-12T05:50:20.663Z,98.30
2019-03-12T05:52:49.679Z,98.40
2019-03-12T05:55:18.405Z,98.10
2019-03-12T05:57:46.851Z,98.20
2019-03-12T06:00:21.575Z,98.20
2019-03-12T06:02:50.036Z,98.10
2019-03-12T06:05:18.549Z,98.20
2019-03-12T06:07:47.324Z,98.10
2019-03-12T06:10:16.417Z,98.30
2019-03-12T06:12:44.927Z,98.20
2019-03-12T06:15:15.520Z,98.20
2019-03-12T06:17:43.958Z,97.90
2019-03-12T06:20:14.703Z,98.20
2019-03-12T06:22:43.316Z,98.20
2019-03-12T06:25:11.985Z,98.10
2019-03-12T06:27:40.508Z,97.90
2019-03-12T06:30:21.108Z,98.00
2019-03-12T06:33:00.023Z,97.90
2019-03-12T06:35:35.813Z,97.60
2019-03-12T06:38:21.947Z,97.60
2019-03-12T06:41:07.343Z,97.70
2019-03-12T06:43:38.604Z,97.50
2019-03-12T06:46:08.687Z,97.20
2019-03-12T06:48:44.688Z,97.30
2019-03-12T06:51:14.798Z,97.00
2019-03-12T06:53:44.886Z,97.10
2019-03-12T06:56:27.002Z,97.20
2019-03-12T06:59:12.451Z,97.00
2019-03-12T07:01:51.105Z,96.60
2019-03-12T07:04:21.167Z,96.90
2019-03-12T07:07:11.592Z,96.40
2019-03-12T07:09:39.394Z,96.50
2019-03-12T07:12:09.934Z,96.50
2019-03-12T07:14:40.058Z,96.30
2019-03-12T07:17:10.289Z,96.20
2019-03-12T07:19:43.121Z,96.20
2019-03-12T07:22:13.210Z,96.10
2019-03-12T07:24:49.178Z,96.00
2019-03-12T07:27:25.065Z,96.10
2019-03-12T07:30:12.982Z,96.00
2019-03-12T07:32:44.133Z,95.80
2019-03-12T07:35:17.150Z,95.40
2019-03-12T07:37:49.725Z,95.40
2019-03-12T07:40:20.226Z,95.20
2019-03-12T07:42:50.482Z,95.20
2019-03-12T07:45:20.582Z,95.00
2019-03-12T07:48:06.007Z,94.80
2019-03-12T07:50:42.247Z,94.60
2019-03-12T07:53:12.374Z,94.50
2019-03-12T07:55:58.920Z,95.10
2019-03-12T07:58:44.178Z,94.00
2019-03-12T08:01:25.009Z,94.00
2019-03-12T08:03:59.177Z,93.70
2019-03-12T08:06:38.471Z,94.10
2019-03-12T08:09:20.880Z,93.20
2019-03-12T08:11:51.105Z,93.40
2019-03-12T08:14:27.714Z,93.10
2019-03-12T08:17:18.945Z,92.70
2019-03-12T08:20:05.222Z,93.00
2019-03-12T08:22:35.307Z,93.00
2019-03-12T08:25:06.199Z,92.60
2019-03-12T08:27:48.432Z,92.30
2019-03-12T08:30:18.789Z,91.90
2019-03-12T08:32:51.876Z,91.70
2019-03-12T08:35:24.980Z,91.30
2019-03-12T08:37:55.092Z,91.20
2019-03-12T08:40:35.240Z,91.10
2019-03-12T08:43:21.762Z,91.20
2019-03-12T08:45:51.846Z,91.30
2019-03-12T08:48:36.646Z,90.30
2019-03-12T08:51:12.602Z,90.30
2019-03-12T08:53:57.727Z,90.00
2019-03-12T08:56:27.897Z,90.30
2019-03-12T08:59:13.089Z,90.00
2019-03-12T09:01:52.293Z,89.00
2019-03-12T09:04:22.352Z,88.90
2019-03-12T09:06:58.372Z,89.30
2019-03-12T09:09:31.273Z,88.50
2019-03-12T09:12:01.371Z,87.70
2019-03-12T09:14:47.710Z,86.40
2019-03-12T09:17:23.758Z,86.80
2019-03-12T09:19:56.618Z,86.00
2019-03-12T09:22:38.806Z,86.20
2019-03-12T09:25:25.986Z,86.10
2019-03-12T09:28:05.986Z,85.50
2019-03-12T09:30:52.182Z,85.40
2019-03-12T09:33:27.984Z,85.70
2019-03-12T09:36:00.802Z,84.80
2019-03-12T09:38:47.275Z,84.10
2019-03-12T09:41:20.258Z,84.60
2019-03-12T09:43:56.482Z,84.50
2019-03-12T09:46:26.679Z,83.90
2019-03-12T09:48:56.831Z,83.40
2019-03-12T09:51:30.310Z,83.40
2019-03-12T09:54:03.111Z,84.30
2019-03-12T09:56:42.634Z,83.40
2019-03-12T09:59:30.969Z,83.00
2019-03-12T10:02:06.974Z,81.10
2019-03-12T10:04:37.647Z,81.80
2019-03-12T10:07:08.007Z,80.00
2019-03-12T10:09:54.276Z,80.20
2019-03-12T10:12:30.106Z,79.60
2019-03-12T10:15:06.448Z,79.30
2019-03-12T10:17:54.627Z,78.20
2019-03-12T10:20:30.655Z,78.90
2019-03-12T10:23:17.235Z,77.50
2019-03-12T10:25:50.706Z,77.70
2019-03-12T10:28:20.933Z,75.80
2019-03-12T10:30:50.969Z,75.60
2019-03-12T10:33:36.067Z,75.50
2019-03-12T10:36:06.236Z,74.00
2019-03-12T10:39:16.127Z,74.30
2019-03-12T10:41:49.187Z,72.70
2019-03-12T10:44:19.294Z,71.80
2019-03-12T10:46:49.437Z,71.20
2019-03-12T10:49:17.951Z,71.70
2019-03-12T10:51:46.483Z,70.90
2019-03-12T10:54:14.923Z,70.80
2019-03-12T10:56:43.354Z,71.30
2019-03-12T10:59:11.798Z,71.00
2019-03-12T11:01:40.206Z,72.00
2019-03-12T11:04:10.300Z,70.80
2019-03-12T11:06:38.794Z,71.70
2019-03-12T11:09:07.563Z,71.60
2019-03-12T11:11:36.102Z,71.50
2019-03-12T11:14:04.663Z,72.40
2019-03-12T11:16:33.274Z,72.20
2019-03-12T11:19:01.689Z,72.10
2019-03-12T11:21:30.133Z,70.50
2019-03-12T11:23:58.629Z,71.20
2019-03-12T11:26:27.050Z,72.30
2019-03-12T11:28:55.466Z,69.70
2019-03-12T11:31:23.882Z,69.10
2019-03-12T11:33:52.329Z,69.80
2019-03-12T11:36:20.812Z,70.30
2019-03-12T11:38:49.228Z,69.90
2019-03-12T11:41:17.658Z,71.00
2019-03-12T11:43:46.081Z,69.20
2019-03-12T11:46:14.743Z,69.20
2019-03-12T11:48:43.225Z,69.10
2019-03-12T11:51:11.791Z,68.20
2019-03-12T11:53:40.379Z,68.20
2019-03-12T11:56:08.976Z,68.90
2019-03-12T11:58:37.574Z,67.50
2019-03-12T12:01:08.078Z,67.80
2019-03-12T12:03:36.493Z,67.80
2019-03-12T12:06:05.041Z,68.20
2019-03-12T12:08:33.461Z,68.10
2019-03-12T12:11:02.795Z,66.10
2019-03-12T12:13:31.378Z,66.10
2019-03-12T12:16:00.002Z,66.40
2019-03-12T12:18:28.958Z,65.20
2019-03-12T12:20:57.421Z,64.80
2019-03-12T12:23:25.870Z,65.20
2019-03-12T12:25:54.346Z,65.50
2019-03-12T12:28:22.889Z,66.70
2019-03-12T12:30:51.478Z,67.70
2019-03-12T12:33:20.041Z,65.00
2019-03-12T12:35:48.483Z,64.80
2019-03-12T12:38:16.913Z,66.00
2019-03-12T12:40:45.428Z,65.80
2019-03-12T12:43:14.033Z,63.80
2019-03-12T12:45:42.590Z,64.50
2019-03-12T12:48:11.060Z,63.90
2019-03-12T12:50:39.644Z,62.30
2019-03-12T12:53:08.575Z,63.50
2019-03-12T12:55:37.032Z,62.20
2019-03-12T12:58:05.763Z,63.10
2019-03-12T13:00:34.306Z,63.60
2019-03-12T13:03:02.802Z,63.20
2019-03-12T13:05:31.277Z,62.30
2019-03-12T13:07:59.783Z,60.70
2019-03-12T13:10:29.677Z,60.10
2019-03-12T13:12:58.213Z,61.00
2019-03-12T13:15:26.754Z,61.10
2019-03-12T13:17:55.158Z,61.70
2019-03-12T13:20:24.096Z,62.60
2019-03-12T13:22:53.237Z,61.50
2019-03-12T13:25:21.673Z,61.80
2019-03-12T13:27:50.254Z,62.50
2019-03-12T13:30:20.458Z,62.80
2019-03-12T13:32:49.053Z,61.10
2019-03-12T13:35:18.498Z,60.70
2019-03-12T13:37:48.313Z,60.90
2019-03-12T13:40:19.230Z,61.50
2019-03-12T13:42:47.807Z,61.40
2019-03-12T13:45:20.354Z,60.80
2019-03-12T13:47:49.074Z,60.60
2019-03-12T13:50:18.119Z,61.40
2019-03-12T13:52:46.553Z,61.80
2019-03-12T13:55:16.030Z,61.40
2019-03-12T13:57:44.789Z,60.50
2019-03-12T14:00:18.552Z,61.00
2019-03-12T14:02:47.164Z,61.30
2019-03-12T14:05:15.844Z,59.70
2019-03-12T14:07:44.490Z,60.70
2019-03-12T14:10:23.786Z,60.80
2019-03-12T14:12:54.249Z,61.60
2019-03-12T14:15:31.862Z,61.10
2019-03-12T14:18:00.945Z,61.30
2019-03-12T14:20:37.712Z,60.80
2019-03-12T14:23:06.406Z,60.40
2019-03-12T14:25:35.397Z,61.50
2019-03-12T14:28:04.170Z,60.40
2019-03-12T14:30:32.934Z,60.30
2019-03-12T14:33:01.530Z,60.80
2019-03-12T14:35:30.190Z,60.90
2019-03-12T14:37:59.478Z,61.10
2019-03-12T14:40:28.065Z,59.40
2019-03-12T14:42:56.615Z,59.50
2019-03-12T14:45:27.101Z,59.20
2019-03-12T14:47:56.265Z,60.00
2019-03-12T14:50:26.646Z,59.40
2019-03-12T14:52:58.216Z,59.50
2019-03-12T14:55:26.820Z,60.10
2019-03-12T14:57:55.286Z,61.50
2019-03-12T15:00:25.693Z,60.30
2019-03-12T15:02:54.531Z,60.70
2019-03-12T15:05:23.166Z,60.80
2019-03-12T15:07:52.348Z,61.80
2019-03-12T15:10:20.775Z,59.90
2019-03-12T15:12:49.175Z,59.50
2019-03-12T15:15:18.132Z,59.90
2019-03-12T15:17:46.725Z,60.00
2019-03-12T15:20:15.654Z,59.20
2019-03-12T15:22:44.729Z,59.50
2019-03-12T15:25:14.489Z,59.50
2019-03-12T15:27:43.020Z,59.90
2019-03-12T15:30:17.347Z,59.40
2019-03-12T15:32:45.761Z,59.50
2019-03-12T15:35:14.202Z,59.20
2019-03-12T15:37:43.235Z,59.50
2019-03-12T15:40:13.014Z,59.80
2019-03-12T15:42:41.599Z,59.20
2019-03-12T15:45:12.547Z,59.20
2019-03-12T15:47:41.024Z,59.50
2019-03-12T15:50:11.959Z,58.80
2019-03-12T15:52:40.412Z,58.60
2019-03-12T15:55:08.989Z,58.70
2019-03-12T15:57:38.092Z,58.00
2019-03-12T16:00:10.469Z,58.60
2019-03-12T16:02:38.993Z,58.40
2019-03-12T16:05:08.623Z,57.80
2019-03-12T16:07:37.175Z,57.10
2019-03-12T16:10:10.364Z,57.40
2019-03-12T16:12:39.139Z,58.40
2019-03-12T16:15:10.212Z,57.10
2019-03-12T16:17:38.727Z,57.60
2019-03-12T16:20:13.207Z,57.70
2019-03-12T16:22:41.722Z,57.00
2019-03-12T16:25:10.767Z,57.20
2019-03-12T16:27:39.467Z,55.60
2019-03-12T16:30:20.144Z,55.50
2019-03-12T16:32:48.705Z,55.70
2019-03-12T16:35:17.784Z,55.00
2019-03-12T16:37:46.906Z,55.40
2019-03-12T16:40:17.585Z,55.00
2019-03-12T16:42:47.685Z,55.30
2019-03-12T16:45:20.549Z,54.90
2019-03-12T16:47:48.967Z,54.60
2019-03-12T16:50:19.883Z,54.00
2019-03-12T16:52:48.451Z,53.80
2019-03-12T16:55:20.396Z,54.00
2019-03-12T16:57:48.281Z,53.40
2019-03-12T17:00:21.281Z,53.30
2019-03-12T17:02:49.794Z,53.30
2019-03-12T17:05:19.102Z,52.70
2019-03-12T17:07:47.658Z,53.30
2019-03-12T17:10:20.749Z,53.00
2019-03-12T17:12:49.459Z,52.60
2019-03-12T17:15:21.023Z,52.50
2019-03-12T17:17:49.507Z,52.30
2019-03-12T17:20:18.893Z,52.60
2019-03-12T17:22:47.337Z,53.30
2019-03-12T17:25:16.023Z,52.50
2019-03-12T17:27:44.546Z,52.50
2019-03-12T17:30:16.059Z,52.90
2019-03-12T17:32:44.534Z,52.90
2019-03-12T17:35:16.138Z,52.40
2019-03-12T17:37:44.597Z,52.50
2019-03-12T17:40:20.885Z,53.20
2019-03-12T17:42:49.503Z,54.00
2019-03-12T17:45:18.072Z,53.40
2019-03-12T17:47:46.600Z,53.30
2019-03-12T17:50:15.270Z,53.70
2019-03-12T17:52:44.008Z,54.00
2019-03-12T17:55:15.666Z,53.80
2019-03-12T17:57:44.176Z,54.10
2019-03-12T18:00:19.349Z,53.70
2019-03-12T18:02:47.854Z,53.60
2019-03-12T18:05:16.423Z,54.10
2019-03-12T18:07:45.494Z,53.60
2019-03-12T18:10:16.186Z,53.80
2019-03-12T18:12:44.724Z,53.70
2019-03-12T18:15:18.833Z,53.10
2019-03-12T18:17:45.998Z,53.30
2019-03-12T18:20:15.961Z,53.30
2019-03-12T18:22:44.729Z,53.30
2019-03-12T18:25:16.254Z,53.10
2019-03-12T18:27:44.978Z,53.60
2019-03-12T18:30:17.705Z,54.10
2019-03-12T18:32:46.302Z,53.10
2019-03-12T18:35:15.129Z,53.30
2019-03-12T18:37:45.017Z,53.30
2019-03-12T18:40:25.423Z,53.20
2019-03-12T18:42:54.140Z,53.10
2019-03-12T18:45:24.420Z,52.80
2019-03-12T18:47:53.102Z,53.10
2019-03-12T18:50:21.597Z,53.10
2019-03-12T18:52:50.574Z,53.30
2019-03-12T18:55:37.531Z,53.10
2019-03-12T18:58:08.693Z,53.30
2019-03-12T19:00:39.379Z,52.90
2019-03-12T19:03:07.819Z,53.00
2019-03-12T19:05:36.377Z,53.70
2019-03-12T19:08:05.869Z,53.40
2019-03-12T19:10:34.487Z,54.10
2019-03-12T19:13:02.972Z,53.70
2019-03-12T19:15:31.561Z,53.60
2019-03-12T19:18:00.164Z,53.80
2019-03-12T19:20:28.616Z,55.60
2019-03-12T19:22:57.124Z,57.20
2019-03-12T19:25:38.003Z,58.20
2019-03-12T19:28:05.510Z,58.40
2019-03-12T19:30:34.279Z,61.20
2019-03-12T19:33:05.562Z,60.80
2019-03-12T19:35:34.208Z,64.40
2019-03-12T19:38:04.207Z,66.30
2019-03-12T19:40:43.457Z,66.10
2019-03-12T19:43:12.148Z,65.50
2019-03-12T19:45:40.770Z,67.00
2019-03-12T19:48:09.446Z,67.70
2019-03-12T19:50:37.967Z,68.20
2019-03-12T19:53:07.142Z,68.40
2019-03-12T19:55:47.461Z,67.70
2019-03-12T19:58:15.963Z,69.00
2019-03-12T20:00:44.526Z,70.20
2019-03-12T20:03:15.376Z,70.70
2019-03-12T20:05:43.339Z,72.20
2019-03-12T20:08:11.926Z,73.60
2019-03-12T20:11:16.714Z,72.80
2019-03-12T20:14:12.235Z,74.20
2019-03-12T20:17:08.084Z,76.70
2019-03-12T20:19:57.855Z,77.40
2019-03-12T20:23:02.302Z,77.90
2019-03-12T20:25:59.418Z,78.10
2019-03-12T20:28:31.007Z,77.70
2019-03-12T20:31:08.333Z,77.50
2019-03-12T20:33:59.501Z,77.20
2019-03-12T20:36:45.835Z,77.90
2019-03-12T20:39:52.515Z,76.50
2019-03-12T20:42:43.648Z,77.70
2019-03-12T20:45:23.847Z,77.10
2019-03-12T20:48:12.114Z,76.30
2019-03-12T20:51:06.164Z,77.20
2019-03-12T20:53:46.143Z,78.00
2019-03-12T20:56:33.012Z,78.80
2019-03-12T20:59:07.435Z,79.60
2019-03-12T21:01:55.414Z,81.40
2019-03-12T21:04:51.020Z,84.20
2019-03-12T21:07:55.704Z,86.40
2019-03-12T21:10:46.422Z,88.30
2019-03-12T21:13:39.678Z,92.00
2019-03-12T21:16:36.153Z,94.20
2019-03-12T21:19:35.101Z,95.30
2019-03-12T21:22:09.397Z,96.00
2019-03-12T21:24:57.367Z,96.80
2019-03-12T21:27:53.786Z,97.70
2019-03-12T21:30:26.700Z,98.20
2019-03-12T21:32:55.141Z,98.80
2019-03-12T21:35:25.199Z,99.00
2019-03-12T21:37:53.689Z,98.70
2019-03-12T21:40:22.362Z,98.90
2019-03-12T21:42:50.957Z,98.40
2019-03-12T21:45:19.671Z,98.20
2019-03-12T21:47:51.383Z,98.60
2019-03-12T21:50:20.188Z,98.70
2019-03-12T21:52:48.861Z,98.80
2019-03-12T21:55:17.390Z,98.90
2019-03-12T21:57:45.871Z,99.00
2019-03-12T22:00:19.583Z,98.70
2019-03-12T22:02:48.335Z,98.80
2019-03-12T22:05:16.840Z,98.90
2019-03-12T22:07:46.132Z,99.00
2019-03-12T22:10:14.719Z,98.90
2019-03-12T22:12:44.653Z,98.80
2019-03-12T22:15:16.147Z,98.40
2019-03-12T22:17:45.903Z,98.50
2019-03-12T22:20:15.808Z,98.60
2019-03-12T22:23:01.925Z,98.70
2019-03-12T22:25:30.331Z,98.40
2019-03-12T22:27:58.845Z,98.30
2019-03-12T22:30:28.635Z,98.40
2019-03-12T22:32:57.058Z,97.90
2019-03-12T22:35:25.666Z,97.80
2019-03-12T22:37:54.072Z,97.60
2019-03-12T22:40:22.547Z,97.70
2019-03-12T22:42:51.194Z,97.80
2019-03-12T22:45:19.863Z,97.50
2019-03-12T22:47:48.772Z,97.70
2019-03-12T22:50:17.261Z,97.80
2019-03-12T22:52:46.213Z,97.80
2019-03-12T22:55:14.906Z,97.60
2019-03-12T22:57:43.385Z,97.40
2019-03-12T23:00:17.103Z,97.70
2019-03-12T23:02:46.749Z,97.40
2019-03-12T23:05:15.406Z,97.50
2019-03-12T23:07:43.881Z,97.60
2019-03-12T23:10:13.608Z,97.00
2019-03-12T23:12:42.102Z,97.20
2019-03-12T23:15:22.544Z,97.10
2019-03-12T23:17:51.275Z,97.40
2019-03-12T23:20:20.517Z,97.40
2019-03-12T23:22:51.966Z,97.30
2019-03-12T23:25:19.365Z,97.30
2019-03-12T23:27:47.833Z,97.30
2019-03-12T23:30:18.084Z,97.40
2019-03-12T23:32:46.999Z,97.10
2019-03-12T23:35:15.709Z,97.50
2019-03-12T23:37:44.188Z,97.40
2019-03-12T23:40:14.999Z,97.20
2019-03-12T23:42:43.475Z,97.20
2019-03-12T23:45:13.997Z,97.00
2019-03-12T23:47:42.479Z,97.00
2019-03-12T23:50:13.162Z,96.90
2019-03-12T23:52:41.665Z,97.10
2019-03-12T23:55:12.035Z,96.90
2019-03-12T23:57:40.481Z,97.00
